sensor_id;sensor_type;location;lat;lon;timestamp;pressure;altitude;pressure_sealevel;temperature;humidity
12360;BME280;6244;51.460;7.090;2024-01-15T00:01:35;99260.91;;;-0.35;100.00
12360;BME280;6244;51.460;7.090;2024-01-15T00:06:35;99250.53;;;-0.34;100.00
12360;BME280;6244;51.460;7.090;2024-01-15T00:11:42;99243.56;;;-0.30;100.00
12360;BME280;6244;51.460;7.090;2024-01-15T00:16:41;99240.94;;;-0.28;100.00
12360;BME280;6244;51.460;7.090;2024-01-15T00:21:45;99219.38;;;-0.26;100.00
12360;BME280;6244;51.460;7.090;2024-01-15T00:26:50;99222.00;;;-0.27;100.00
12360;BME280;6244;51.460;7.090;2024-01-15T00:31:57;99221.03;;;-0.23;100.00
12360;BME280;6244;51.460;7.090;2024-01-15T00:36:59;99216.78;;;-0.24;100.00
12360;BME280;6244;51.460;7.090;2024-01-15T00:42:04;99203.00;;;-0.23;100.00
12360;BME280;6244;51.460;7.090;2024-01-15T00:47:07;99216.00;;;-0.28;100.00
12360;BME280;6244;51.460;7.090;2024-01-15T00:52:11;99212.56;;;-0.28;100.00
12360;BME280;6244;51.460;7.090;2024-01-15T00:57:19;99213.31;;;-0.23;100.00
12360;BME280;6244;51.460;7.090;2024-01-15T01:02:18;99208.94;;;-0.21;100.00
12360;BME280;6244;51.460;7.090;2024-01-15T01:07:19;99198.56;;;-0.20;100.00
12360;BME280;6244;51.460;7.090;2024-01-15T01:12:22;99203.78;;;-0.21;100.00
12360;BME280;6244;51.460;7.090;2024-01-15T01:17:26;99195.16;;;-0.20;100.00
12360;BME280;6244;51.460;7.090;2024-01-15T01:22:31;99189.16;;;-0.21;100.00
12360;BME280;6244;51.460;7.090;2024-01-15T01:27:32;99190.78;;;-0.18;100.00
12360;BME280;6244;51.460;7.090;2024-01-15T01:32:34;99190.78;;;-0.18;100.00
12360;BME280;6244;51.460;7.090;2024-01-15T01:37:40;99189.94;;;-0.19;100.00
12360;BME280;6244;51.460;7.090;2024-01-15T01:42:46;99192.44;;;-0.16;100.00
12360;BME280;6244;51.460;7.090;2024-01-15T01:47:51;99199.19;;;-0.12;100.00
12360;BME280;6244;51.460;7.090;2024-01-15T01:52:52;99191.41;;;-0.10;100.00
12360;BME280;6244;51.460;7.090;2024-01-15T01:57:53;99191.41;;;-0.10;100.00
12360;BME280;6244;51.460;7.090;2024-01-15T02:02:52;99200.03;;;-0.11;100.00
12360;BME280;6244;51.460;7.090;2024-01-15T02:07:50;99203.47;;;-0.11;100.00
12360;BME280;6244;51.460;7.090;2024-01-15T02:12:58;99200.06;;;-0.13;100.00
12360;BME280;6244;51.460;7.090;2024-01-15T02:18:04;99202.63;;;-0.13;100.00
12360;BME280;6244;51.460;7.090;2024-01-15T02:23:09;99204.31;;;-0.10;100.00
12360;BME280;6244;51.460;7.090;2024-01-15T02:28:17;99203.47;;;-0.11;100.00
12360;BME280;6244;51.460;7.090;2024-01-15T02:33:22;99188.88;;;-0.12;100.00
12360;BME280;6244;51.460;7.090;2024-01-15T02:38:24;99188.13;;;-0.15;100.00
12360;BME280;6244;51.460;7.090;2024-01-15T02:43:23;99188.91;;;-0.13;100.00
12360;BME280;6244;51.460;7.090;2024-01-15T02:48:24;99192.44;;;-0.16;100.00
12360;BME280;6244;51.460;7.090;2024-01-15T02:53:28;99184.75;;;-0.17;100.00
12360;BME280;6244;51.460;7.090;2024-01-15T02:58:28;99186.47;;;-0.18;100.00
12360;BME280;6244;51.460;7.090;2024-01-15T03:03:29;99184.06;;;-0.22;100.00
12360;BME280;6244;51.460;7.090;2024-01-15T03:08:32;99185.59;;;-0.17;100.00
12360;BME280;6244;51.460;7.090;2024-01-15T03:13:31;99184.56;;;-0.11;100.00
12360;BME280;6244;51.460;7.090;2024-01-15T03:18:37;99192.25;;;-0.10;100.00
12360;BME280;6244;51.460;7.090;2024-01-15T03:23:40;99181.88;;;-0.08;100.00
12360;BME280;6244;51.460;7.090;2024-01-15T03:28:43;99188.78;;;-0.09;100.00
12360;BME280;6244;51.460;7.090;2024-01-15T03:33:41;99182.84;;;-0.11;100.00
12360;BME280;6244;51.460;7.090;2024-01-15T03:38:41;99185.47;;;-0.12;100.00
12360;BME280;6244;51.460;7.090;2024-01-15T03:43:43;99179.44;;;-0.13;100.00
12360;BME280;6244;51.460;7.090;2024-01-15T03:48:41;99181.03;;;-0.09;100.00
12360;BME280;6244;51.460;7.090;2024-01-15T03:53:44;99186.19;;;-0.09;100.00
12360;BME280;6244;51.460;7.090;2024-01-15T03:58:47;99187.03;;;-0.08;100.00
12360;BME280;6244;51.460;7.090;2024-01-15T04:03:46;99178.19;;;0.01;100.00
12360;BME280;6244;51.460;7.090;2024-01-15T04:08:50;99182.50;;;0.00;100.00
12360;BME280;6244;51.460;7.090;2024-01-15T04:13:52;99157.56;;;0.01;100.00
12360;BME280;6244;51.460;7.090;2024-01-15T04:18:51;99154.97;;;0.01;100.00
12360;BME280;6244;51.460;7.090;2024-01-15T04:23:55;99144.56;;;0.04;100.00
12360;BME280;6244;51.460;7.090;2024-01-15T04:28:52;99127.69;;;-0.07;100.00
12360;BME280;6244;51.460;7.090;2024-01-15T04:33:50;99142.75;;;0.06;100.00
12360;BME280;6244;51.460;7.090;2024-01-15T04:38:47;99137.72;;;0.03;100.00
12360;BME280;6244;51.460;7.090;2024-01-15T04:43:45;99131.56;;;0.07;100.00
12360;BME280;6244;51.460;7.090;2024-01-15T04:48:41;99131.56;;;0.07;100.00
12360;BME280;6244;51.460;7.090;2024-01-15T04:53:38;99134.78;;;0.13;100.00
12360;BME280;6244;51.460;7.090;2024-01-15T04:58:34;99127.91;;;0.14;100.00
12360;BME280;6244;51.460;7.090;2024-01-15T05:03:32;99118.38;;;0.16;100.00
12360;BME280;6244;51.460;7.090;2024-01-15T05:08:29;99114.88;;;0.17;100.00
12360;BME280;6244;51.460;7.090;2024-01-15T05:13:25;99111.53;;;0.15;100.00
12360;BME280;6244;51.460;7.090;2024-01-15T05:18:22;99103.78;;;0.15;100.00
12360;BME280;6244;51.460;7.090;2024-01-15T05:23:20;99101.09;;;0.18;100.00
12360;BME280;6244;51.460;7.090;2024-01-15T05:28:16;99093.47;;;0.15;100.00
12360;BME280;6244;51.460;7.090;2024-01-15T05:33:13;99091.78;;;0.14;100.00
12360;BME280;6244;51.460;7.090;2024-01-15T05:38:10;99094.38;;;0.14;100.00
12360;BME280;6244;51.460;7.090;2024-01-15T05:43:08;99087.59;;;0.10;100.00
12360;BME280;6244;51.460;7.090;2024-01-15T05:48:04;99096.09;;;0.13;100.00
12360;BME280;6244;51.460;7.090;2024-01-15T05:53:01;99090.84;;;0.16;100.00
12360;BME280;6244;51.460;7.090;2024-01-15T05:58:00;99096.09;;;0.13;100.00
12360;BME280;6244;51.460;7.090;2024-01-15T06:02:58;99096.72;;;0.20;100.00
12360;BME280;6244;51.460;7.090;2024-01-15T06:07:55;99082.94;;;0.21;100.00
12360;BME280;6244;51.460;7.090;2024-01-15T06:12:52;99095.81;;;0.21;100.00
12360;BME280;6244;51.460;7.090;2024-01-15T06:17:49;99078.63;;;0.21;100.00
12360;BME280;6244;51.460;7.090;2024-01-15T06:22:47;99080.22;;;0.25;100.00
12360;BME280;6244;51.460;7.090;2024-01-15T06:27:43;99084.53;;;0.25;100.00
12360;BME280;6244;51.460;7.090;2024-01-15T06:32:40;99078.41;;;0.27;100.00
12360;BME280;6244;51.460;7.090;2024-01-15T06:37:36;99080.16;;;0.27;100.00
12360;BME280;6244;51.460;7.090;2024-01-15T06:42:34;99067.16;;;0.30;100.00
12360;BME280;6244;51.460;7.090;2024-01-15T06:47:31;99062.16;;;0.25;100.00
12360;BME280;6244;51.460;7.090;2024-01-15T06:52:27;99066.41;;;0.26;100.00
12360;BME280;6244;51.460;7.090;2024-01-15T06:57:24;99068.16;;;0.26;100.00
12360;BME280;6244;51.460;7.090;2024-01-15T07:02:22;99069.06;;;0.25;100.00
12360;BME280;6244;51.460;7.090;2024-01-15T07:07:19;99073.19;;;0.29;100.00
12360;BME280;6244;51.460;7.090;2024-01-15T07:12:15;99075.78;;;0.29;100.00
12360;BME280;6244;51.460;7.090;2024-01-15T07:17:12;99085.03;;;0.35;100.00
12360;BME280;6244;51.460;7.090;2024-01-15T07:22:10;99087.63;;;0.35;100.00
12360;BME280;6244;51.460;7.090;2024-01-15T07:27:06;99083.41;;;0.32;100.00
12360;BME280;6244;51.460;7.090;2024-01-15T07:32:04;99083.53;;;0.29;100.00
12360;BME280;6244;51.460;7.090;2024-01-15T07:37:03;99074.03;;;0.29;100.00
12360;BME280;6244;51.460;7.090;2024-01-15T07:42:01;99068.81;;;0.31;100.00
12360;BME280;6244;51.460;7.090;2024-01-15T07:46:57;99066.97;;;0.35;100.00
12360;BME280;6244;51.460;7.090;2024-01-15T07:51:54;99084.13;;;0.36;100.00
12360;BME280;6244;51.460;7.090;2024-01-15T07:56:54;99079.31;;;0.26;100.00
12360;BME280;6244;51.460;7.090;2024-01-15T08:01:52;99079.25;;;0.28;100.00
12360;BME280;6244;51.460;7.090;2024-01-15T08:06:49;99082.78;;;0.25;100.00
12360;BME280;6244;51.460;7.090;2024-01-15T08:11:45;99068.47;;;0.17;100.00
12360;BME280;6244;51.460;7.090;2024-01-15T08:16:42;99067.97;;;0.06;100.00
12360;BME280;6244;51.460;7.090;2024-01-15T08:21:40;99061.66;;;-0.11;100.00
12360;BME280;6244;51.460;7.090;2024-01-15T08:26:37;99087.69;;;-0.18;100.00
12360;BME280;6244;51.460;7.090;2024-01-15T08:31:33;99068.06;;;-0.22;100.00
12360;BME280;6244;51.460;7.090;2024-01-15T08:36:30;99062.16;;;-0.26;100.00
12360;BME280;6244;51.460;7.090;2024-01-15T08:41:28;99072.44;;;-0.24;100.00
12360;BME280;6244;51.460;7.090;2024-01-15T08:46:24;99067.31;;;-0.26;100.00
12360;BME280;6244;51.460;7.090;2024-01-15T08:51:21;99071.53;;;-0.23;100.00
12360;BME280;6244;51.460;7.090;2024-01-15T08:56:18;99078.31;;;-0.21;100.00
12360;BME280;6244;51.460;7.090;2024-01-15T09:01:16;99079.28;;;-0.25;100.00
12360;BME280;6244;51.460;7.090;2024-01-15T09:06:12;99086.50;;;-0.35;100.00
12360;BME280;6244;51.460;7.090;2024-01-15T09:11:09;99087.44;;;-0.37;100.00
12360;BME280;6244;51.460;7.090;2024-01-15T09:16:06;99079.75;;;-0.39;100.00
12360;BME280;6244;51.460;7.090;2024-01-15T09:21:04;99102.09;;;-0.39;100.00
12360;BME280;6244;51.460;7.090;2024-01-15T09:26:01;99100.63;;;-0.46;100.00
12360;BME280;6244;51.460;7.090;2024-01-15T09:30:57;99112.00;;;-0.53;100.00
12360;BME280;6244;51.460;7.090;2024-01-15T09:35:54;99107.03;;;-0.60;100.00
12360;BME280;6244;51.460;7.090;2024-01-15T09:40:52;99103.63;;;-0.60;100.00
12360;BME280;6244;51.460;7.090;2024-01-15T09:45:49;99112.09;;;-0.56;100.00
12360;BME280;6244;51.460;7.090;2024-01-15T09:50:46;99113.78;;;-0.55;100.00
12360;BME280;6244;51.460;7.090;2024-01-15T09:55:42;99117.94;;;-0.51;100.00
12360;BME280;6244;51.460;7.090;2024-01-15T10:00:40;99112.19;;;-0.60;100.00
12360;BME280;6244;51.460;7.090;2024-01-15T10:05:39;99114.72;;;-0.58;100.00
12360;BME280;6244;51.460;7.090;2024-01-15T10:10:36;99121.44;;;-0.54;100.00
12360;BME280;6244;51.460;7.090;2024-01-15T10:15:34;99112.59;;;-0.45;100.00
12360;BME280;6244;51.460;7.090;2024-01-15T10:20:33;99097.09;;;-0.44;100.00
12360;BME280;6244;51.460;7.090;2024-01-15T10:25:29;99095.47;;;-0.46;100.00
12360;BME280;6244;51.460;7.090;2024-01-15T10:30:26;99110.88;;;-0.45;100.00
12360;BME280;6244;51.460;7.090;2024-01-15T10:35:26;99097.00;;;-0.41;100.00
12360;BME280;6244;51.460;7.090;2024-01-15T10:40:25;99092.56;;;-0.36;100.00
12360;BME280;6244;51.460;7.090;2024-01-15T10:45:22;99095.06;;;-0.34;100.00
12360;BME280;6244;51.460;7.090;2024-01-15T10:50:19;99101.81;;;-0.30;100.00
12360;BME280;6244;51.460;7.090;2024-01-15T10:55:16;99098.38;;;-0.31;100.00
12360;BME280;6244;51.460;7.090;2024-01-15T11:00:15;99101.81;;;-0.30;100.00
12360;BME280;6244;51.460;7.090;2024-01-15T11:05:12;99094.75;;;-0.23;100.00
12360;BME280;6244;51.460;7.090;2024-01-15T11:10:38;99107.41;;;0.09;100.00
12360;BME280;6244;51.460;7.090;2024-01-15T11:16:02;99092.16;;;0.03;100.00
12360;BME280;6244;51.460;7.090;2024-01-15T11:21:20;99113.72;;;0.01;100.00
12360;BME280;6244;51.460;7.090;2024-01-15T11:26:35;99095.00;;;-0.06;100.00
12360;BME280;6244;51.460;7.090;2024-01-15T11:31:58;99105.81;;;0.05;100.00
12360;BME280;6244;51.460;7.090;2024-01-15T11:37:01;99112.16;;;-0.05;100.00
12360;BME280;6244;51.460;7.090;2024-01-15T11:42:00;99105.16;;;-0.02;100.00
12360;BME280;6244;51.460;7.090;2024-01-15T11:47:00;99107.72;;;0.00;100.00
12360;BME280;6244;51.460;7.090;2024-01-15T11:51:59;99101.91;;;-0.07;100.00
12360;BME280;6244;51.460;7.090;2024-01-15T11:56:57;99090.75;;;-0.07;100.00
12360;BME280;6244;51.460;7.090;2024-01-15T12:01:56;99097.59;;;-0.06;100.00
12360;BME280;6244;51.460;7.090;2024-01-15T12:06:54;99087.88;;;0.02;100.00
12360;BME280;6244;51.460;7.090;2024-01-15T12:11:55;99102.41;;;0.05;100.00
12360;BME280;6244;51.460;7.090;2024-01-15T12:16:56;99103.31;;;0.04;100.00
12360;BME280;6244;51.460;7.090;2024-01-15T12:21:54;99105.03;;;0.03;100.00
12360;BME280;6244;51.460;7.090;2024-01-15T12:26:51;99096.41;;;0.04;100.00
12360;BME280;6244;51.460;7.090;2024-01-15T12:31:48;99086.25;;;0.24;100.00
12360;BME280;6244;51.460;7.090;2024-01-15T12:36:46;99093.13;;;0.49;100.00
12360;BME280;6244;51.460;7.090;2024-01-15T12:41:44;99105.63;;;0.36;100.00
12360;BME280;6244;51.460;7.090;2024-01-15T12:46:40;99112.38;;;0.15;100.00
12360;BME280;6244;51.460;7.090;2024-01-15T12:51:37;99111.81;;;0.06;100.00
12360;BME280;6244;51.460;7.090;2024-01-15T12:56:34;99114.34;;;0.07;100.00
12360;BME280;6244;51.460;7.090;2024-01-15T13:01:31;99113.34;;;0.11;100.00
12360;BME280;6244;51.460;7.090;2024-01-15T13:06:28;99123.66;;;0.11;100.00
12360;BME280;6244;51.460;7.090;2024-01-15T13:11:24;99128.03;;;0.09;100.00
12360;BME280;6244;51.460;7.090;2024-01-15T13:16:21;99121.00;;;0.14;100.00
12360;BME280;6244;51.460;7.090;2024-01-15T13:21:19;99123.97;;;0.28;100.00
12360;BME280;6244;51.460;7.090;2024-01-15T13:26:16;99134.28;;;0.28;100.00
12360;BME280;6244;51.460;7.090;2024-01-15T13:31:13;99118.56;;;0.35;100.00
12360;BME280;6244;51.460;7.090;2024-01-15T13:36:10;99126.00;;;0.44;100.00
12360;BME280;6244;51.460;7.090;2024-01-15T13:41:07;99133.81;;;0.42;100.00
12360;BME280;6244;51.460;7.090;2024-01-15T13:46:04;99129.47;;;0.43;100.00
12360;BME280;6244;51.460;7.090;2024-01-15T13:51:00;99133.63;;;0.47;100.00
12360;BME280;6244;51.460;7.090;2024-01-15T13:55:57;99136.16;;;0.48;100.00
12360;BME280;6244;51.460;7.090;2024-01-15T14:00:55;99149.03;;;0.50;100.00
12360;BME280;6244;51.460;7.090;2024-01-15T14:05:52;99160.22;;;0.49;100.00
12360;BME280;6244;51.460;7.090;2024-01-15T14:10:49;99146.66;;;0.44;100.00
12360;BME280;6244;51.460;7.090;2024-01-15T14:15:45;99163.13;;;0.40;100.00
12360;BME280;6244;51.460;7.090;2024-01-15T14:20:45;99164.06;;;0.37;100.00
12360;BME280;6244;51.460;7.090;2024-01-15T14:25:41;99179.66;;;0.34;100.00
12360;BME280;6244;51.460;7.090;2024-01-15T14:30:38;99187.38;;;0.34;100.00
12360;BME280;6244;51.460;7.090;2024-01-15T14:35:35;99195.97;;;0.35;100.00
12360;BME280;6244;51.460;7.090;2024-01-15T14:40:33;99199.38;;;0.35;100.00
12360;BME280;6244;51.460;7.090;2024-01-15T14:45:30;99225.34;;;0.31;100.00
12360;BME280;6244;51.460;7.090;2024-01-15T14:50:26;99214.88;;;0.35;100.00
12360;BME280;6244;51.460;7.090;2024-01-15T14:55:23;99216.81;;;0.28;100.00
12360;BME280;6244;51.460;7.090;2024-01-15T15:00:21;99232.34;;;0.27;100.00
12360;BME280;6244;51.460;7.090;2024-01-15T15:05:18;99243.50;;;0.27;100.00
12360;BME280;6244;51.460;7.090;2024-01-15T15:10:15;99257.38;;;0.23;100.00
12360;BME280;6244;51.460;7.090;2024-01-15T15:15:11;99268.81;;;0.16;100.00
12360;BME280;6244;51.460;7.090;2024-01-15T15:20:11;99274.84;;;0.15;100.00
12360;BME280;6244;51.460;7.090;2024-01-15T15:25:07;99282.66;;;0.12;100.00
12360;BME280;6244;51.460;7.090;2024-01-15T15:30:06;99299.06;;;0.10;100.00
12360;BME280;6244;51.460;7.090;2024-01-15T15:35:03;99298.13;;;0.12;100.00
12360;BME280;6244;51.460;7.090;2024-01-15T15:40:01;99304.19;;;0.11;100.00
12360;BME280;6244;51.460;7.090;2024-01-15T15:44:57;99311.91;;;0.13;100.00
12360;BME280;6244;51.460;7.090;2024-01-15T15:49:54;99323.91;;;0.14;100.00
12360;BME280;6244;51.460;7.090;2024-01-15T15:54:51;99334.13;;;0.17;100.00
12360;BME280;6244;51.460;7.090;2024-01-15T15:59:48;99340.28;;;0.11;100.00
12360;BME280;6244;51.460;7.090;2024-01-15T16:04:45;99339.34;;;0.15;100.00
12360;BME280;6244;51.460;7.090;2024-01-15T16:09:41;99342.03;;;0.11;100.00
12360;BME280;6244;51.460;7.090;2024-01-15T16:14:38;99355.06;;;0.06;100.00
12360;BME280;6244;51.460;7.090;2024-01-15T16:19:36;99363.88;;;-0.01;100.00
12360;BME280;6244;51.460;7.090;2024-01-15T16:24:33;99363.97;;;-0.04;100.00
12360;BME280;6244;51.460;7.090;2024-01-15T16:29:30;99377.66;;;-0.02;100.00
12360;BME280;6244;51.460;7.090;2024-01-15T16:34:26;99376.91;;;-0.06;100.00
12360;BME280;6244;51.460;7.090;2024-01-15T16:39:24;99394.81;;;-0.01;100.00
12360;BME280;6244;51.460;7.090;2024-01-15T16:44:21;99391.44;;;-0.03;100.00
12360;BME280;6244;51.460;7.090;2024-01-15T16:49:18;99387.41;;;-0.12;100.00
12360;BME280;6244;51.460;7.090;2024-01-15T16:54:15;99391.06;;;-0.20;100.00
12360;BME280;6244;51.460;7.090;2024-01-15T16:59:13;99402.97;;;-0.16;100.00
12360;BME280;6244;51.460;7.090;2024-01-15T17:04:10;99401.28;;;-0.17;100.00
12360;BME280;6244;51.460;7.090;2024-01-15T17:09:06;99414.13;;;-0.16;100.00
12360;BME280;6244;51.460;7.090;2024-01-15T17:14:03;99410.75;;;-0.18;100.00
12360;BME280;6244;51.460;7.090;2024-01-15T17:19:01;99418.44;;;-0.16;100.00
12360;BME280;6244;51.460;7.090;2024-01-15T17:23:58;99431.25;;;-0.13;100.00
12360;BME280;6244;51.460;7.090;2024-01-15T17:28:55;99421.81;;;-0.14;100.00
12360;BME280;6244;51.460;7.090;2024-01-15T17:33:51;99424.34;;;-0.13;100.00
12360;BME280;6244;51.460;7.090;2024-01-15T17:38:49;99426.91;;;-0.11;100.00
12360;BME280;6244;51.460;7.090;2024-01-15T17:43:46;99441.53;;;-0.12;100.00
12360;BME280;6244;51.460;7.090;2024-01-15T17:48:43;99444.06;;;-0.10;100.00
12360;BME280;6244;51.460;7.090;2024-01-15T17:53:39;99451.13;;;-0.17;100.00
12360;BME280;6244;51.460;7.090;2024-01-15T17:58:37;99461.34;;;-0.14;100.00
12360;BME280;6244;51.460;7.090;2024-01-15T18:03:34;99460.44;;;-0.11;100.00
12360;BME280;6244;51.460;7.090;2024-01-15T18:08:31;99463.81;;;-0.09;100.00
12360;BME280;6244;51.460;7.090;2024-01-15T18:13:28;99464.47;;;-0.03;100.00
12360;BME280;6244;51.460;7.090;2024-01-15T18:18:28;99461.00;;;-0.02;100.00
12360;BME280;6244;51.460;7.090;2024-01-15T18:23:25;99472.94;;;0.03;100.00
12360;BME280;6244;51.460;7.090;2024-01-15T18:28:21;99488.41;;;0.03;100.00
12360;BME280;6244;51.460;7.090;2024-01-15T18:33:18;99485.72;;;0.07;100.00
12360;BME280;6244;51.460;7.090;2024-01-15T18:38:19;99492.75;;;0.02;100.00
12360;BME280;6244;51.460;7.090;2024-01-15T18:43:15;99509.72;;;0.09;100.00
12360;BME280;6244;51.460;7.090;2024-01-15T18:48:12;99511.03;;;0.25;100.00
12360;BME280;6244;51.460;7.090;2024-01-15T18:53:08;99513.19;;;0.08;100.00
12360;BME280;6244;51.460;7.090;2024-01-15T18:58:06;99522.00;;;-0.01;100.00
12360;BME280;6244;51.460;7.090;2024-01-15T19:03:03;99520.16;;;0.05;100.00
12360;BME280;6244;51.460;7.090;2024-01-15T19:08:00;99530.44;;;0.06;100.00
12360;BME280;6244;51.460;7.090;2024-01-15T19:12:57;99546.03;;;0.02;100.00
12360;BME280;6244;51.460;7.090;2024-01-15T19:17:55;99542.72;;;-0.04;100.00
12360;BME280;6244;51.460;7.090;2024-01-15T19:22:52;99544.38;;;-0.01;100.00
12360;BME280;6244;51.460;7.090;2024-01-15T19:27:48;99556.41;;;0.00;100.00
12360;BME280;6244;51.460;7.090;2024-01-15T19:32:47;99564.63;;;0.14;100.00
12360;BME280;6244;51.460;7.090;2024-01-15T19:37:45;99570.72;;;0.10;100.00
12360;BME280;6244;51.460;7.090;2024-01-15T19:42:41;99575.31;;;0.01;100.00
12360;BME280;6244;51.460;7.090;2024-01-15T19:47:38;99583.00;;;0.02;100.00
12360;BME280;6244;51.460;7.090;2024-01-15T19:52:35;99588.38;;;-0.07;100.00
12360;BME280;6244;51.460;7.090;2024-01-15T19:57:33;99585.72;;;-0.04;100.00
12360;BME280;6244;51.460;7.090;2024-01-15T20:02:30;99590.03;;;-0.05;100.00
12360;BME280;6244;51.460;7.090;2024-01-15T20:07:27;99597.72;;;-0.03;100.00
12360;BME280;6244;51.460;7.090;2024-01-15T20:12:23;99610.69;;;-0.06;100.00
12360;BME280;6244;51.460;7.090;2024-01-15T20:17:21;99606.50;;;-0.10;100.00
12360;BME280;6244;51.460;7.090;2024-01-15T20:22:18;99617.81;;;-0.16;100.00
12360;BME280;6244;51.460;7.090;2024-01-15T20:27:15;99613.56;;;-0.18;100.00
12360;BME280;6244;51.460;7.090;2024-01-15T20:32:12;99611.78;;;-0.16;100.00
12360;BME280;6244;51.460;7.090;2024-01-15T20:37:12;99612.84;;;-0.25;100.00
12360;BME280;6244;51.460;7.090;2024-01-15T20:42:10;99634.38;;;-0.26;100.00
12360;BME280;6244;51.460;7.090;2024-01-15T20:47:07;99635.22;;;-0.25;100.00
12360;BME280;6244;51.460;7.090;2024-01-15T20:52:05;99635.38;;;-0.32;100.00
12360;BME280;6244;51.460;7.090;2024-01-15T20:57:04;99644.03;;;-0.34;100.00
12360;BME280;6244;51.460;7.090;2024-01-15T21:02:01;99652.63;;;-0.35;100.00
12360;BME280;6244;51.460;7.090;2024-01-15T21:06:58;99656.03;;;-0.33;100.00
12360;BME280;6244;51.460;7.090;2024-01-15T21:11:55;99651.69;;;-0.31;100.00
12360;BME280;6244;51.460;7.090;2024-01-15T21:16:53;99654.97;;;-0.24;100.00
12360;BME280;6244;51.460;7.090;2024-01-15T21:21:54;99666.88;;;-0.19;100.00
12360;BME280;6244;51.460;7.090;2024-01-15T21:26:51;99669.56;;;-0.25;100.00
12360;BME280;6244;51.460;7.090;2024-01-15T21:31:48;99679.03;;;-0.24;100.00
12360;BME280;6244;51.460;7.090;2024-01-15T21:36:48;99674.72;;;-0.25;100.00
12360;BME280;6244;51.460;7.090;2024-01-15T21:41:48;99692.59;;;-0.17;100.00
12360;BME280;6244;51.460;7.090;2024-01-15T21:46:45;99687.66;;;-0.26;100.00
12360;BME280;6244;51.460;7.090;2024-01-15T21:51:42;99699.22;;;-0.44;100.00
12360;BME280;6244;51.460;7.090;2024-01-15T21:56:40;99692.72;;;-0.62;100.00
12360;BME280;6244;51.460;7.090;2024-01-15T22:01:37;99703.75;;;-0.55;100.00
12360;BME280;6244;51.460;7.090;2024-01-15T22:06:34;99707.16;;;-0.53;100.00
12360;BME280;6244;51.460;7.090;2024-01-15T22:11:33;99703.66;;;-0.51;100.00
12360;BME280;6244;51.460;7.090;2024-01-15T22:16:31;99707.25;;;-0.58;100.00
12360;BME280;6244;51.460;7.090;2024-01-15T22:21:29;99713.00;;;-0.45;100.00
12360;BME280;6244;51.460;7.090;2024-01-15T22:26:26;99723.22;;;-0.42;100.00
12360;BME280;6244;51.460;7.090;2024-01-15T22:31:22;99724.91;;;-0.41;100.00
12360;BME280;6244;51.460;7.090;2024-01-15T22:36:20;99726.69;;;-0.43;100.00
12360;BME280;6244;51.460;7.090;2024-01-15T22:41:17;99737.81;;;-0.41;100.00
12360;BME280;6244;51.460;7.090;2024-01-15T22:46:13;99736.16;;;-0.44;100.00
12360;BME280;6244;51.460;7.090;2024-01-15T22:51:10;99743.81;;;-0.41;100.00
12360;BME280;6244;51.460;7.090;2024-01-15T22:56:08;99754.84;;;-0.34;100.00
12360;BME280;6244;51.460;7.090;2024-01-15T23:01:04;99776.25;;;-0.31;100.00
12360;BME280;6244;51.460;7.090;2024-01-15T23:06:02;99770.16;;;-0.28;100.00
12360;BME280;6244;51.460;7.090;2024-01-15T23:10:59;99764.28;;;-0.33;100.00
12360;BME280;6244;51.460;7.090;2024-01-15T23:15:57;99776.13;;;-0.24;100.00
12360;BME280;6244;51.460;7.090;2024-01-15T23:20:54;99766.03;;;-0.35;100.00
12360;BME280;6244;51.460;7.090;2024-01-15T23:25:50;99772.81;;;-0.31;100.00
12360;BME280;6244;51.460;7.090;2024-01-15T23:30:59;99789.03;;;-0.24;100.00
12360;BME280;6244;51.460;7.090;2024-01-15T23:35:56;99789.03;;;-0.24;100.00
12360;BME280;6244;51.460;7.090;2024-01-15T23:41:06;99786.69;;;-0.37;100.00
12360;BME280;6244;51.460;7.090;2024-01-15T23:46:06;99807.09;;;-0.27;100.00
12360;BME280;6244;51.460;7.090;2024-01-15T23:51:03;99799.44;;;-0.31;100.00
12360;BME280;6244;51.460;7.090;2024-01-15T23:56:00;99797.84;;;-0.38;100.00
